Time;durP1;ratioP1;P1;durP2;ratioP2;P2;SDS_P1;SDS_P2;PMS_P1;PMS_P2;Temp;Humidity;BMP_temperature;BMP_pressure;BME280_temperature;BME280_humidity;BME280_pressure;Samples;Min_cycle;Max_cycle;Signal;HPM_P1;HPM_P2
2020/12/31 00:00:36;;;;;;;6.80;5.80;;;2.60;99.90;;;;;;4966780;28;20658;-67
2020/12/31 00:03:02;;;;;;;6.97;6.37;;;2.60;99.90;;;;;;4967647;28;20168;-68
2020/12/31 00:05:27;;;;;;;6.87;5.60;;;2.50;99.90;;;;;;4968149;28;20183;-68
2020/12/31 00:07:53;;;;;;;9.10;6.57;;;2.40;99.90;;;;;;4967061;28;20938;-69
2020/12/31 00:10:18;;;;;;;10.80;5.87;;;2.40;99.90;;;;;;4968163;28;20180;-66
2020/12/31 00:12:44;;;;;;;6.80;5.70;;;2.40;99.90;;;;;;4967936;28;20212;-69
2020/12/31 00:15:10;;;;;;;5.60;5.10;;;2.40;99.90;;;;;;4966657;28;20267;-68
2020/12/31 00:17:35;;;;;;;7.50;6.00;;;2.40;99.90;;;;;;4967225;28;20192;-68
2020/12/31 00:20:01;;;;;;;13.53;7.33;;;2.50;99.90;;;;;;4967881;28;20184;-68
2020/12/31 00:22:26;;;;;;;5.97;5.40;;;2.50;99.90;;;;;;4970622;28;20212;-68
2020/12/31 00:24:52;;;;;;;4.57;4.17;;;2.50;99.90;;;;;;4971086;28;20207;-68
2020/12/31 00:27:18;;;;;;;5.67;5.07;;;2.50;99.90;;;;;;4971281;28;20576;-68
2020/12/31 00:29:43;;;;;;;5.03;4.53;;;2.50;99.90;;;;;;4970043;28;20176;-67
2020/12/31 00:32:09;;;;;;;5.30;4.80;;;2.50;99.90;;;;;;4971152;28;20431;-68
2020/12/31 00:34:34;;;;;;;6.57;4.50;;;2.50;99.90;;;;;;4971152;28;20199;-67
2020/12/31 00:37:00;;;;;;;6.77;4.80;;;2.40;99.90;;;;;;4971055;28;20671;-67
2020/12/31 00:39:26;;;;;;;4.70;4.30;;;2.40;99.90;;;;;;4969970;28;20214;-67
2020/12/31 00:41:51;;;;;;;5.17;4.60;;;2.30;99.90;;;;;;4971003;28;20563;-66
2020/12/31 00:44:17;;;;;;;4.70;4.27;;;2.20;99.90;;;;;;4970923;28;20184;-68
2020/12/31 00:46:42;;;;;;;5.40;4.40;;;2.20;99.90;;;;;;4970661;28;20666;-68
2020/12/31 00:49:08;;;;;;;5.57;4.60;;;2.10;99.90;;;;;;4968589;28;20208;-67
2020/12/31 00:51:34;;;;;;;5.20;4.70;;;2.10;99.90;;;;;;4970575;28;20195;-68
2020/12/31 00:53:59;;;;;;;5.23;4.73;;;2.10;99.90;;;;;;4970774;28;20210;-66
2020/12/31 00:56:25;;;;;;;5.13;4.17;;;2.00;99.90;;;;;;4970433;28;20184;-68
2020/12/31 00:58:51;;;;;;;4.70;4.20;;;2.00;99.90;;;;;;4969977;28;20203;-67
2020/12/31 01:01:17;;;;;;;4.37;3.97;;;1.90;99.90;;;;;;4968753;28;20180;-68
2020/12/31 01:03:43;;;;;;;5.40;3.80;;;1.90;99.90;;;;;;4970468;28;20486;-68
2020/12/31 01:06:09;;;;;;;4.37;4.03;;;1.90;99.90;;;;;;4970433;28;20470;-67
2020/12/31 01:08:34;;;;;;;4.90;3.80;;;1.90;99.90;;;;;;4969559;28;20204;-66
2020/12/31 01:11:00;;;;;;;4.90;4.40;;;1.90;99.90;;;;;;4970571;28;20427;-67
2020/12/31 01:13:25;;;;;;;8.77;5.20;;;1.90;99.90;;;;;;4969965;28;20239;-67
2020/12/31 01:15:51;;;;;;;4.30;3.90;;;1.90;99.90;;;;;;4970608;28;20328;-68
2020/12/31 01:18:16;;;;;;;4.83;4.17;;;1.90;99.90;;;;;;4969263;28;20204;-68
2020/12/31 01:20:42;;;;;;;5.50;5.00;;;1.80;99.90;;;;;;4969966;28;20180;-66
2020/12/31 01:23:08;;;;;;;6.97;4.80;;;1.80;99.90;;;;;;4969964;28;20180;-67
2020/12/31 01:25:34;;;;;;;4.90;4.40;;;1.80;99.90;;;;;;4970198;28;20654;-68
2020/12/31 01:28:00;;;;;;;6.90;6.20;;;1.80;99.90;;;;;;4969257;28;20230;-68
2020/12/31 01:30:26;;;;;;;6.50;4.40;;;1.70;99.90;;;;;;4969919;28;21080;-68
2020/12/31 01:32:52;;;;;;;8.57;4.87;;;1.70;99.90;;;;;;4969441;28;20467;-68
2020/12/31 01:35:18;;;;;;;5.63;5.03;;;1.70;99.90;;;;;;4969853;28;20412;-68
2020/12/31 01:37:44;;;;;;;6.83;4.77;;;1.70;99.90;;;;;;4969423;28;20436;-68
2020/12/31 01:40:10;;;;;;;5.83;4.17;;;1.80;99.90;;;;;;4970128;28;20432;-66
2020/12/31 01:42:37;;;;;;;11.27;6.90;;;1.80;99.90;;;;;;4969949;28;20203;-68
2020/12/31 01:45:03;;;;;;;11.00;6.70;;;1.80;99.90;;;;;;4969917;28;20558;-67
2020/12/31 01:47:29;;;;;;;6.23;5.27;;;1.80;99.90;;;;;;4969876;28;20530;-67
2020/12/31 01:49:55;;;;;;;6.27;5.43;;;1.80;99.90;;;;;;4969093;28;20322;-68
2020/12/31 01:52:21;;;;;;;6.80;5.23;;;1.80;99.90;;;;;;4969529;28;20491;-68
2020/12/31 01:54:47;;;;;;;6.87;6.27;;;1.80;99.90;;;;;;4969576;28;21053;-68
2020/12/31 01:57:13;;;;;;;6.87;5.90;;;1.90;99.90;;;;;;4967705;28;20518;-67
2020/12/31 01:59:39;;;;;;;8.40;5.70;;;1.90;99.90;;;;;;4966957;28;20467;-67
2020/12/31 02:02:07;;;;;;;7.03;5.60;;;2.00;99.90;;;;;;4969261;28;20525;-67
2020/12/31 02:04:33;;;;;;;7.23;6.10;;;2.00;99.90;;;;;;4969314;28;20178;-67
2020/12/31 02:06:59;;;;;;;7.67;6.27;;;2.00;99.90;;;;;;4969415;28;20430;-67
2020/12/31 02:09:24;;;;;;;18.43;10.80;;;2.00;99.90;;;;;;4968449;28;20837;-67
2020/12/31 02:11:50;;;;;;;9.20;7.37;;;2.00;99.90;;;;;;4969439;28;20168;-68
2020/12/31 02:14:15;;;;;;;8.50;5.63;;;2.00;99.90;;;;;;4969547;28;20200;-68
2020/12/31 02:16:41;;;;;;;6.03;5.17;;;2.00;99.90;;;;;;4969234;28;20180;-68
2020/12/31 02:19:12;;;;;;;9.13;6.33;;;2.00;99.90;;;;;;4968040;28;20200;-68
2020/12/31 02:21:42;;;;;;;7.77;6.27;;;1.90;99.90;;;;;;4969275;28;20604;-68
2020/12/31 02:24:08;;;;;;;9.30;7.00;;;1.90;99.90;;;;;;4968828;28;20434;-68
2020/12/31 02:26:36;;;;;;;11.53;6.40;;;1.90;99.90;;;;;;4969154;28;20861;-67
2020/12/31 02:29:03;;;;;;;7.27;5.23;;;1.90;99.90;;;;;;4966725;28;20234;-68
2020/12/31 02:31:29;;;;;;;7.33;6.53;;;1.80;99.90;;;;;;4968692;28;20434;-68
2020/12/31 02:33:56;;;;;;;6.43;5.77;;;1.80;99.90;;;;;;4969478;28;20468;-68
2020/12/31 02:36:24;;;;;;;9.13;5.70;;;1.80;99.90;;;;;;4969177;28;20596;-68
2020/12/31 02:38:49;;;;;;;8.20;7.40;;;1.80;99.90;;;;;;4968251;28;20481;-68
2020/12/31 02:41:15;;;;;;;7.13;4.97;;;1.80;99.90;;;;;;4969016;28;20462;-68
2020/12/31 02:43:41;;;;;;;6.63;5.60;;;1.80;99.90;;;;;;4968817;28;20180;-67
2020/12/31 02:46:13;;;;;;;7.03;5.80;;;1.80;99.90;;;;;;4967940;28;20259;-68
2020/12/31 02:48:39;;;;;;;7.60;6.10;;;1.70;99.90;;;;;;4967838;28;20478;-67
2020/12/31 02:51:06;;;;;;;10.47;5.03;;;1.70;99.90;;;;;;4968437;28;20423;-67
2020/12/31 02:53:32;;;;;;;7.90;6.00;;;1.70;99.90;;;;;;4968574;28;20929;-68
2020/12/31 02:55:57;;;;;;;9.83;5.33;;;1.70;99.90;;;;;;4968850;28;20428;-68
2020/12/31 02:58:23;;;;;;;6.90;5.37;;;1.70;99.90;;;;;;4965902;28;20291;-68
2020/12/31 03:00:49;;;;;;;9.13;6.10;;;1.60;99.90;;;;;;4968768;28;20537;-68
2020/12/31 03:03:15;;;;;;;7.47;5.73;;;1.60;99.90;;;;;;4968438;28;20183;-68
2020/12/31 03:05:40;;;;;;;7.13;6.00;;;1.60;99.90;;;;;;4968701;28;20428;-66
2020/12/31 03:08:06;;;;;;;7.80;6.53;;;1.60;99.90;;;;;;4967683;28;20249;-67
2020/12/31 03:10:31;;;;;;;10.50;7.30;;;1.60;99.90;;;;;;4968892;28;20185;-68
2020/12/31 03:12:57;;;;;;;7.13;5.70;;;1.50;99.90;;;;;;4968529;28;20229;-67
2020/12/31 03:15:23;;;;;;;8.63;6.07;;;1.50;99.90;;;;;;4968428;28;20179;-67
2020/12/31 03:17:49;;;;;;;10.03;6.30;;;1.40;99.90;;;;;;4967660;28;20439;-67
2020/12/31 03:20:15;;;;;;;8.83;5.90;;;1.40;99.90;;;;;;4968173;28;20598;-67
2020/12/31 03:22:41;;;;;;;8.90;7.00;;;1.40;99.90;;;;;;4968797;28;20423;-66
2020/12/31 03:25:06;;;;;;;8.10;6.40;;;1.30;99.90;;;;;;4967067;28;20416;-66
2020/12/31 03:27:32;;;;;;;10.47;8.40;;;1.30;99.90;;;;;;4966414;28;20216;-68
2020/12/31 03:29:58;;;;;;;9.70;6.97;;;1.30;99.90;;;;;;4967822;28;20603;-68
2020/12/31 03:32:24;;;;;;;8.20;6.73;;;1.20;99.90;;;;;;4968429;28;20459;-67
2020/12/31 03:34:49;;;;;;;6.73;6.03;;;1.20;99.90;;;;;;4968428;28;20698;-68
2020/12/31 03:37:15;;;;;;;8.73;6.60;;;1.20;99.90;;;;;;4968258;28;20211;-68
2020/12/31 03:39:41;;;;;;;8.70;6.77;;;1.10;99.90;;;;;;4967529;28;20267;-68
2020/12/31 03:42:07;;;;;;;6.73;6.03;;;1.10;99.90;;;;;;4967866;28;20626;-67
2020/12/31 03:44:33;;;;;;;6.80;6.10;;;1.10;99.90;;;;;;4968431;28;20430;-68
2020/12/31 03:46:58;;;;;;;9.13;6.60;;;1.10;99.90;;;;;;4967849;28;20477;-67
2020/12/31 03:49:24;;;;;;;8.07;6.23;;;1.00;99.90;;;;;;4967309;28;20203;-68
2020/12/31 03:51:49;;;;;;;7.33;6.03;;;1.00;99.90;;;;;;4967999;28;20182;-67
2020/12/31 03:54:15;;;;;;;6.37;5.00;;;1.00;99.90;;;;;;4967956;28;20211;-68
2020/12/31 03:56:40;;;;;;;8.83;6.23;;;1.00;99.90;;;;;;4969999;28;20176;-66
2020/12/31 03:59:06;;;;;;;11.30;7.87;;;1.00;99.90;;;;;;4970575;28;20673;-68
2020/12/31 04:01:33;;;;;;;8.30;6.97;;;1.00;99.90;;;;;;4969960;28;20208;-67
2020/12/31 04:03:59;;;;;;;7.87;5.87;;;0.90;99.90;;;;;;4971640;28;20588;-68
2020/12/31 04:06:25;;;;;;;11.20;7.20;;;1.00;99.90;;;;;;4971782;28;20510;-66
2020/12/31 04:08:50;;;;;;;7.90;7.07;;;1.00;99.90;;;;;;4970648;28;20542;-68
2020/12/31 04:11:16;;;;;;;10.20;6.37;;;1.00;99.90;;;;;;4971722;28;20610;-68
2020/12/31 04:13:42;;;;;;;6.00;5.40;;;1.00;99.90;;;;;;4971217;28;20620;-65
2020/12/31 04:16:07;;;;;;;8.60;6.50;;;1.00;99.90;;;;;;4971351;28;20176;-67
2020/12/31 04:18:33;;;;;;;10.23;6.93;;;1.00;99.90;;;;;;4970650;28;20422;-68
2020/12/31 04:20:59;;;;;;;7.00;5.93;;;0.90;99.90;;;;;;4971076;28;20300;-67
2020/12/31 04:23:24;;;;;;;6.93;6.20;;;0.90;99.90;;;;;;4971750;28;20654;-68
2020/12/31 04:25:51;;;;;;;6.70;5.40;;;0.90;99.90;;;;;;4971248;28;20185;-67
2020/12/31 04:28:16;;;;;;;8.00;5.90;;;0.90;99.90;;;;;;4970179;28;20212;-67
2020/12/31 04:30:45;;;;;;;5.87;5.20;;;0.80;99.90;;;;;;4970823;28;20526;-67
2020/12/31 04:33:11;;;;;;;8.83;6.10;;;0.80;99.90;;;;;;4971267;28;20811;-67
2020/12/31 04:35:36;;;;;;;6.80;6.10;;;0.80;99.90;;;;;;4971093;28;20427;-68
2020/12/31 04:38:02;;;;;;;6.27;4.93;;;0.70;99.90;;;;;;4969815;28;20539;-68
2020/12/31 04:40:28;;;;;;;6.80;4.83;;;0.70;99.90;;;;;;4971192;28;20215;-67
2020/12/31 04:42:54;;;;;;;5.47;4.97;;;0.60;99.90;;;;;;4970770;28;20189;-67
2020/12/31 04:45:21;;;;;;;6.30;4.47;;;0.60;99.90;;;;;;4971162;28;20184;-68
2020/12/31 04:47:54;;;;;;;6.53;4.93;;;0.60;99.90;;;;;;4970332;28;20452;-68
2020/12/31 04:50:21;;;;;;;7.10;5.07;;;0.60;99.90;;;;;;4971563;28;20415;-67
2020/12/31 04:52:48;;;;;;;7.90;5.77;;;0.50;99.90;;;;;;4970805;28;20468;-67
2020/12/31 04:55:17;;;;;;;6.20;5.60;;;0.50;99.90;;;;;;4971381;28;20426;-67
2020/12/31 04:57:43;;;;;;;8.43;6.53;;;0.50;99.90;;;;;;4970075;28;20542;-66
2020/12/31 05:00:09;;;;;;;5.03;4.43;;;0.50;99.90;;;;;;4969167;28;20562;-67
2020/12/31 05:02:34;;;;;;;6.80;6.10;;;0.40;99.90;;;;;;4970915;28;20395;-67
2020/12/31 05:05:03;;;;;;;9.23;5.23;;;0.40;99.90;;;;;;4970366;28;21073;-67
2020/12/31 05:07:28;;;;;;;5.00;4.50;;;0.40;99.90;;;;;;4969691;28;20325;-68
2020/12/31 05:10:09;;;;;;;5.80;4.70;;;0.40;99.90;;;;;;4969824;28;20875;-67
2020/12/31 05:12:35;;;;;;;6.10;4.83;;;0.30;99.90;;;;;;4970463;28;20258;-67
2020/12/31 05:15:00;;;;;;;5.30;3.83;;;0.30;99.90;;;;;;4970261;28;20474;-66
2020/12/31 05:17:29;;;;;;;5.87;4.60;;;0.30;99.90;;;;;;4970227;28;20654;-68
2020/12/31 05:19:55;;;;;;;5.60;4.27;;;0.30;99.90;;;;;;4969805;28;20176;-67
2020/12/31 05:22:21;;;;;;;4.50;4.10;;;0.30;99.90;;;;;;4970774;28;20431;-67
2020/12/31 05:24:49;;;;;;;4.53;3.80;;;0.30;99.90;;;;;;4970236;28;20532;-66
2020/12/31 05:27:28;;;;;;;4.43;4.03;;;0.30;99.90;;;;;;4969668;28;20185;-67
2020/12/31 05:30:04;;;;;;;6.40;4.10;;;0.30;99.90;;;;;;4957145;23;20516;-71
2020/12/31 05:32:37;;;;;;;4.83;4.23;;;0.30;99.90;;;;;;4931267;29;20973;-69
2020/12/31 05:35:15;;;;;;;5.63;4.50;;;0.20;99.90;;;;;;4931544;29;20454;-69
2020/12/31 05:37:41;;;;;;;4.43;3.70;;;0.20;99.90;;;;;;4930622;29;20461;-69
2020/12/31 05:40:09;;;;;;;5.70;4.70;;;0.20;99.90;;;;;;4931742;29;20813;-69
2020/12/31 05:42:36;;;;;;;4.53;3.83;;;0.20;99.90;;;;;;4931505;29;20196;-70
2020/12/31 05:45:03;;;;;;;4.73;4.33;;;0.10;99.90;;;;;;4931469;29;20421;-69
2020/12/31 05:47:31;;;;;;;4.40;4.00;;;0.10;99.90;;;;;;4931577;29;20425;-69
2020/12/31 05:49:57;;;;;;;4.60;3.63;;;0.10;99.90;;;;;;4931040;29;20548;-70
2020/12/31 05:52:36;;;;;;;4.63;4.13;;;0.10;99.90;;;;;;4931353;29;20524;-69
2020/12/31 05:55:04;;;;;;;5.80;4.50;;;0.10;99.90;;;;;;4931402;29;20256;-69
2020/12/31 05:57:42;;;;;;;4.60;4.10;;;0.10;99.90;;;;;;4931168;29;20890;-69
2020/12/31 06:00:11;;;;;;;5.27;4.40;;;0.10;99.90;;;;;;4927496;29;20452;-70
2020/12/31 06:02:45;;;;;;;5.17;4.30;;;0.10;99.90;;;;;;4931030;29;20439;-70
2020/12/31 06:05:14;;;;;;;4.33;3.90;;;0.10;99.90;;;;;;4930765;29;20513;-71
2020/12/31 06:07:58;;;;;;;4.60;4.17;;;0.10;99.90;;;;;;4930571;29;20808;-70
2020/12/31 06:10:30;;;;;;;4.73;3.83;;;0.10;99.90;;;;;;4930702;29;20516;-70
2020/12/31 06:12:59;;;;;;;5.50;3.60;;;0.10;99.90;;;;;;4930865;29;20465;-70
2020/12/31 06:15:30;;;;;;;3.50;3.20;;;0.10;99.90;;;;;;4930622;29;20425;-70
2020/12/31 06:17:57;;;;;;;5.27;3.67;;;0.10;99.90;;;;;;4928797;29;20857;-69
2020/12/31 06:20:25;;;;;;;4.47;3.90;;;0.10;99.90;;;;;;4930510;29;20417;-70
2020/12/31 06:23:07;;;;;;;6.27;5.00;;;0.10;99.90;;;;;;4928915;29;20441;-69
2020/12/31 06:25:47;;;;;;;6.30;4.67;;;0.00;99.90;;;;;;4930617;29;20426;-71
2020/12/31 06:28:18;;;;;;;5.53;4.60;;;0.00;99.90;;;;;;4930133;29;20456;-70
2020/12/31 06:30:52;;;;;;;4.53;3.90;;;0.00;99.90;;;;;;4930525;29;20421;-69
2020/12/31 06:33:23;;;;;;;5.57;4.70;;;0.10;99.90;;;;;;4930469;29;20468;-69
2020/12/31 06:36:00;;;;;;;5.70;4.20;;;0.10;99.90;;;;;;4931008;29;20508;-71
2020/12/31 06:38:29;;;;;;;5.70;4.33;;;0.10;99.90;;;;;;4929598;29;20452;-69
2020/12/31 06:40:54;;;;;;;5.27;4.77;;;0.10;99.90;;;;;;4930552;29;20436;-70
2020/12/31 06:43:33;;;;;;;8.60;4.30;;;0.10;99.90;;;;;;4930226;29;20425;-69
2020/12/31 06:45:58;;;;;;;4.40;3.87;;;0.20;99.90;;;;;;4930531;29;20177;-70
2020/12/31 06:48:27;;;;;;;5.40;4.40;;;0.10;99.90;;;;;;4929383;29;20480;-70
2020/12/31 06:51:03;;;;;;;4.90;4.10;;;0.20;99.90;;;;;;4930486;29;20254;-69
2020/12/31 06:53:37;;;;;;;5.67;3.90;;;0.30;99.90;;;;;;4930135;29;20471;-69
2020/12/31 06:56:07;;;;;;;5.60;4.63;;;0.30;99.90;;;;;;4930527;29;20440;-69
2020/12/31 06:58:34;;;;;;;6.00;4.00;;;0.40;99.90;;;;;;4929386;29;20448;-71
2020/12/31 07:01:01;;;;;;;5.50;4.33;;;0.30;99.90;;;;;;4909244;29;20843;-69
2020/12/31 07:03:47;;;;;;;7.17;4.70;;;0.40;99.90;;;;;;4911561;29;20430;-69
2020/12/31 07:06:31;;;;;;;5.00;4.23;;;0.40;99.90;;;;;;4911303;29;20549;-69
2020/12/31 07:09:24;;;;;;;5.87;4.80;;;0.40;99.90;;;;;;4910392;29;20493;-70
2020/12/31 07:11:57;;;;;;;6.07;4.60;;;0.40;99.90;;;;;;4911027;29;20513;-69
2020/12/31 07:14:25;;;;;;;5.97;4.70;;;0.40;99.90;;;;;;4910789;29;20871;-70
2020/12/31 07:17:07;;;;;;;6.30;5.00;;;0.50;99.90;;;;;;4910707;29;20944;-70
2020/12/31 07:19:45;;;;;;;5.83;3.70;;;0.50;99.90;;;;;;4910268;29;20446;-70
2020/12/31 07:22:11;;;;;;;7.00;4.60;;;0.50;99.90;;;;;;4919870;29;20429;-69
2020/12/31 07:24:51;;;;;;;5.93;4.47;;;0.50;99.90;;;;;;4930131;29;20425;-69
2020/12/31 07:27:22;;;;;;;6.80;4.83;;;0.50;99.90;;;;;;4929428;29;20537;-70
2020/12/31 07:30:00;;;;;;;8.33;4.40;;;0.50;99.90;;;;;;4928912;29;21004;-70
2020/12/31 07:32:57;;;;;;;7.63;5.17;;;0.60;99.90;;;;;;4932830;29;20930;-69
2020/12/31 07:35:36;;;;;;;7.67;6.87;;;0.70;99.90;;;;;;4933490;29;20417;-70
2020/12/31 07:38:08;;;;;;;8.63;6.57;;;0.70;99.90;;;;;;4932547;29;20444;-69
2020/12/31 07:40:51;;;;;;;7.00;5.60;;;0.70;99.90;;;;;;4933845;29;20761;-70
2020/12/31 07:43:18;;;;;;;7.20;6.50;;;0.70;99.90;;;;;;4933422;29;20504;-70
2020/12/31 07:45:45;;;;;;;6.20;5.17;;;0.70;99.90;;;;;;4933692;29;20421;-69
2020/12/31 07:48:11;;;;;;;5.90;5.30;;;0.80;99.90;;;;;;4932751;29;20507;-69
2020/12/31 07:50:37;;;;;;;6.07;5.47;;;0.80;99.90;;;;;;4932554;29;20449;-72
2020/12/31 07:53:02;;;;;;;7.27;5.83;;;0.80;99.90;;;;;;4933568;29;20209;-71
2020/12/31 07:55:28;;;;;;;7.70;5.90;;;0.90;99.90;;;;;;4933348;29;20201;-69
2020/12/31 07:57:54;;;;;;;7.43;6.10;;;0.90;99.90;;;;;;4932862;29;20180;-71
2020/12/31 08:00:21;;;;;;;10.70;6.60;;;0.90;99.90;;;;;;4930996;29;20571;-71
2020/12/31 08:02:55;;;;;;;11.00;7.47;;;1.00;99.90;;;;;;4933568;29;20173;-72
2020/12/31 08:05:22;;;;;;;8.50;6.60;;;1.00;99.90;;;;;;4933101;29;20808;-70
2020/12/31 08:07:53;;;;;;;13.30;7.10;;;1.00;99.90;;;;;;4933120;29;21004;-71
2020/12/31 08:10:19;;;;;;;10.67;8.00;;;1.00;99.90;;;;;;4928996;29;20926;-70
2020/12/31 08:13:11;;;;;;;7.33;5.60;;;1.10;99.90;;;;;;4933022;29;20520;-71
2020/12/31 08:15:36;;;;;;;7.80;6.70;;;1.10;99.90;;;;;;4933195;29;20933;-72
2020/12/31 08:18:02;;;;;;;9.00;8.07;;;1.10;99.90;;;;;;4931187;29;20453;-70
2020/12/31 08:20:47;;;;;;;6.97;5.30;;;1.20;99.90;;;;;;4935307;29;20166;-71
2020/12/31 08:23:17;;;;;;;6.83;5.70;;;1.20;99.90;;;;;;4936102;29;20185;-71
2020/12/31 08:25:45;;;;;;;7.00;5.20;;;1.30;99.90;;;;;;4934889;29;20493;-71
2020/12/31 08:28:16;;;;;;;8.07;6.03;;;1.30;99.90;;;;;;4933888;29;20472;-71
2020/12/31 08:30:41;;;;;;;6.10;5.40;;;1.40;99.90;;;;;;4936086;29;20463;-72
2020/12/31 08:33:07;;;;;;;7.00;6.30;;;1.40;99.90;;;;;;4935930;29;20504;-70
2020/12/31 08:35:41;;;;;;;6.17;5.57;;;1.50;99.90;;;;;;4934833;29;20170;-72
2020/12/31 08:38:06;;;;;;;8.47;6.20;;;1.60;99.90;;;;;;4935303;29;20601;-72
2020/12/31 08:40:38;;;;;;;7.87;6.47;;;1.60;99.90;;;;;;4936139;29;20994;-71
2020/12/31 08:43:07;;;;;;;6.93;6.20;;;1.70;99.90;;;;;;4936019;29;20667;-72
2020/12/31 08:45:33;;;;;;;7.13;5.53;;;1.80;99.90;;;;;;4936489;29;20422;-72
2020/12/31 08:48:30;;;;;;;7.60;6.33;;;1.90;99.90;;;;;;4935254;29;20465;-72
2020/12/31 08:51:00;;;;;;;6.17;5.57;;;2.00;99.90;;;;;;4935591;29;20186;-71
2020/12/31 08:53:27;;;;;;;7.43;6.00;;;2.00;99.90;;;;;;4936562;29;20465;-71
2020/12/31 08:55:55;;;;;;;8.17;6.73;;;2.00;99.90;;;;;;4936425;29;20526;-71
2020/12/31 08:58:25;;;;;;;6.90;6.13;;;1.90;99.90;;;;;;4935576;29;20448;-72
2020/12/31 09:00:51;;;;;;;9.23;7.23;;;2.00;99.90;;;;;;4936487;29;20460;-72
2020/12/31 09:03:19;;;;;;;6.80;6.00;;;2.00;99.90;;;;;;4936167;29;20430;-71
2020/12/31 09:05:56;;;;;;;8.73;7.57;;;2.10;99.90;;;;;;4936229;29;20210;-71
2020/12/31 09:08:22;;;;;;;7.57;6.27;;;2.20;99.90;;;;;;4935441;29;20449;-72
2020/12/31 09:10:48;;;;;;;6.90;5.97;;;2.20;99.90;;;;;;4936244;29;20812;-72
2020/12/31 09:13:19;;;;;;;7.13;5.83;;;2.20;99.90;;;;;;4936120;29;20213;-71
2020/12/31 09:15:45;;;;;;;11.97;9.00;;;2.20;99.90;;;;;;4936102;29;20174;-71
2020/12/31 09:18:18;;;;;;;8.53;7.00;;;2.20;99.90;;;;;;4935018;29;20448;-72
2020/12/31 09:20:44;;;;;;;7.73;7.03;;;2.20;99.90;;;;;;4935924;29;20422;-72
2020/12/31 09:23:10;;;;;;;8.20;7.27;;;2.20;99.90;;;;;;4936374;29;20587;-72
2020/12/31 09:25:50;;;;;;;11.80;6.77;;;2.20;99.90;;;;;;4935895;29;20429;-73
2020/12/31 09:28:16;;;;;;;7.93;6.60;;;2.10;99.90;;;;;;4934759;29;20456;-71
2020/12/31 09:30:41;;;;;;;9.50;7.30;;;2.10;99.90;;;;;;4935917;29;20512;-71
2020/12/31 09:33:07;;;;;;;8.80;7.13;;;2.10;99.90;;;;;;4935713;29;20556;-72
2020/12/31 09:35:32;;;;;;;10.17;7.17;;;2.10;99.90;;;;;;4935611;29;20591;-72
2020/12/31 09:37:59;;;;;;;9.90;8.10;;;2.20;99.90;;;;;;4934557;29;20195;-72
2020/12/31 09:40:25;;;;;;;11.27;7.60;;;2.20;99.90;;;;;;4935646;29;20170;-72
2020/12/31 09:42:51;;;;;;;9.60;6.90;;;2.30;99.90;;;;;;4935313;29;20418;-71
2020/12/31 09:45:17;;;;;;;8.37;6.47;;;2.40;99.90;;;;;;4935024;29;20431;-71
2020/12/31 09:47:43;;;;;;;10.40;8.20;;;2.50;99.90;;;;;;4934086;29;20509;-72
2020/12/31 09:50:09;;;;;;;10.10;7.67;;;2.50;99.90;;;;;;4935038;29;20174;-72
2020/12/31 09:52:37;;;;;;;7.70;6.23;;;2.60;99.90;;;;;;4934709;29;20178;-71
2020/12/31 09:55:02;;;;;;;8.10;7.30;;;2.60;99.90;;;;;;4934357;29;20597;-71
2020/12/31 09:57:28;;;;;;;8.20;6.70;;;2.60;99.90;;;;;;4934924;29;20512;-73
2020/12/31 09:59:53;;;;;;;6.73;6.07;;;2.60;99.90;;;;;;4932940;29;20190;-72
2020/12/31 10:02:19;;;;;;;8.17;6.73;;;2.70;99.90;;;;;;4935146;29;20508;-71
2020/12/31 10:04:45;;;;;;;7.10;6.23;;;2.70;99.90;;;;;;4935599;29;20180;-71
2020/12/31 10:07:10;;;;;;;6.10;5.33;;;2.70;99.90;;;;;;4934865;29;20169;-72
2020/12/31 10:09:36;;;;;;;10.97;7.00;;;2.70;99.90;;;;;;4933895;29;20227;-72
2020/12/31 10:12:01;;;;;;;6.50;5.90;;;2.90;99.90;;;;;;4934756;29;20180;-71
2020/12/31 10:14:27;;;;;;;6.60;5.80;;;3.10;99.90;;;;;;4934522;29;20205;-72
2020/12/31 10:16:52;;;;;;;6.23;5.63;;;3.20;99.90;;;;;;4934366;29;20177;-71
2020/12/31 10:19:18;;;;;;;6.80;6.10;;;3.40;99.90;;;;;;4933435;29;20194;-72
2020/12/31 10:21:46;;;;;;;7.83;6.13;;;4.00;99.90;;;;;;4934584;29;20221;-70
2020/12/31 10:24:11;;;;;;;7.73;6.73;;;4.80;99.90;;;;;;4934513;29;20170;-73
2020/12/31 10:26:37;;;;;;;7.90;6.67;;;5.10;99.90;;;;;;4934474;29;20452;-72
2020/12/31 10:29:02;;;;;;;6.53;5.93;;;5.00;99.90;;;;;;4933515;29;20233;-72
2020/12/31 10:31:28;;;;;;;5.40;4.77;;;4.80;99.90;;;;;;4934660;29;20662;-70
2020/12/31 10:33:53;;;;;;;8.70;7.23;;;4.50;99.90;;;;;;4934666;29;20213;-72
2020/12/31 10:36:19;;;;;;;7.53;5.43;;;4.50;99.90;;;;;;4934716;29;20173;-72
2020/12/31 10:38:44;;;;;;;6.20;5.60;;;4.30;99.90;;;;;;4933854;29;20679;-72
2020/12/31 10:41:12;;;;;;;5.00;4.50;;;4.00;99.90;;;;;;4934838;29;20177;-72
2020/12/31 10:43:38;;;;;;;5.83;4.50;;;3.60;99.90;;;;;;4934927;29;20170;-72
2020/12/31 10:46:03;;;;;;;4.93;4.37;;;3.30;99.90;;;;;;4935046;29;20486;-72
2020/12/31 10:48:29;;;;;;;6.30;5.70;;;2.90;99.90;;;;;;4934874;29;20197;-71
2020/12/31 10:50:58;;;;;;;5.10;4.47;;;2.60;99.90;;;;;;4950151;28;20263;-71
2020/12/31 10:53:23;;;;;;;6.80;5.30;;;2.50;99.90;;;;;;4934472;29;20209;-71
2020/12/31 10:55:49;;;;;;;6.10;5.50;;;2.40;99.90;;;;;;4934384;29;20418;-70
2020/12/31 10:58:14;;;;;;;6.47;5.37;;;2.30;99.90;;;;;;4933894;29;20193;-71
2020/12/31 11:00:40;;;;;;;6.40;5.60;;;2.30;99.90;;;;;;4935172;29;20186;-71
2020/12/31 11:03:05;;;;;;;6.50;5.73;;;2.40;99.90;;;;;;4935039;29;20647;-70
2020/12/31 11:05:31;;;;;;;6.27;5.67;;;2.50;99.90;;;;;;4934311;29;20189;-69
2020/12/31 11:07:56;;;;;;;9.70;5.30;;;2.70;99.90;;;;;;4933933;29;20169;-70
2020/12/31 11:10:22;;;;;;;7.10;6.00;;;2.80;99.90;;;;;;4935103;29;20189;-70
2020/12/31 11:12:47;;;;;;;6.67;5.77;;;2.90;99.90;;;;;;4935366;28;20215;-70
2020/12/31 11:15:13;;;;;;;6.53;5.80;;;2.90;99.90;;;;;;4935078;29;20174;-69
2020/12/31 11:17:38;;;;;;;7.80;5.90;;;3.10;99.90;;;;;;4934214;29;20178;-71
2020/12/31 11:20:04;;;;;;;7.30;5.90;;;3.20;99.90;;;;;;4934739;29;20205;-68
2020/12/31 11:22:30;;;;;;;8.30;5.83;;;3.10;99.90;;;;;;4934935;29;20170;-70
2020/12/31 11:24:55;;;;;;;6.70;5.37;;;3.00;99.90;;;;;;4935248;29;20260;-69
2020/12/31 11:27:21;;;;;;;6.33;5.33;;;3.00;99.90;;;;;;4934816;29;20189;-70
2020/12/31 11:29:46;;;;;;;6.90;6.20;;;3.00;99.90;;;;;;4933314;29;20677;-68
2020/12/31 11:32:12;;;;;;;7.33;6.10;;;3.10;99.90;;;;;;4933369;29;20264;-69
2020/12/31 11:34:37;;;;;;;7.73;6.27;;;3.20;99.90;;;;;;4933058;29;20304;-69
2020/12/31 11:37:03;;;;;;;8.07;6.33;;;3.10;99.90;;;;;;4933018;29;20228;-69
2020/12/31 11:39:28;;;;;;;9.83;6.80;;;3.00;99.90;;;;;;4932403;29;20229;-69
2020/12/31 11:41:57;;;;;;;8.07;6.23;;;2.90;99.90;;;;;;4933117;29;20228;-69
2020/12/31 11:44:24;;;;;;;7.63;5.93;;;3.00;99.90;;;;;;4933095;29;20178;-68
2020/12/31 11:46:50;;;;;;;6.87;6.17;;;3.10;99.90;;;;;;4933092;29;20426;-69
2020/12/31 11:49:18;;;;;;;8.80;6.47;;;3.50;99.90;;;;;;4932208;29;20461;-69
2020/12/31 11:51:43;;;;;;;8.20;5.47;;;4.00;99.90;;;;;;4933200;29;20431;-69
2020/12/31 11:54:09;;;;;;;7.40;6.10;;;4.70;99.90;;;;;;4933116;29;21031;-69
2020/12/31 11:56:34;;;;;;;6.27;5.40;;;5.40;99.90;;;;;;4933070;29;20182;-69
2020/12/31 11:59:01;;;;;;;5.90;5.33;;;6.10;99.90;;;;;;4932098;28;20225;-69
2020/12/31 12:01:26;;;;;;;6.60;5.33;;;6.60;99.90;;;;;;4932061;29;20178;-69
2020/12/31 12:03:52;;;;;;;7.07;5.33;;;6.70;99.90;;;;;;4932993;29;20434;-69
2020/12/31 12:06:17;;;;;;;5.90;4.90;;;6.20;99.90;;;;;;4931482;29;20182;-69
2020/12/31 12:08:43;;;;;;;5.50;5.10;;;5.60;99.90;;;;;;4931897;29;20297;-68
2020/12/31 12:11:08;;;;;;;5.93;5.03;;;5.00;99.90;;;;;;4932564;29;20189;-70
2020/12/31 12:13:34;;;;;;;5.70;5.17;;;4.70;99.90;;;;;;4932841;29;20240;-69
2020/12/31 12:15:59;;;;;;;11.50;5.40;;;4.50;99.90;;;;;;4932716;29;20383;-69
2020/12/31 12:18:25;;;;;;;6.43;5.60;;;4.30;99.90;;;;;;4934693;29;20205;-70
2020/12/31 12:20:51;;;;;;;7.17;5.70;;;4.10;99.90;;;;;;4936094;29;20181;-70
2020/12/31 12:23:17;;;;;;;6.90;5.87;;;3.80;99.90;;;;;;4935989;29;20205;-70
2020/12/31 12:25:43;;;;;;;7.00;5.50;;;3.80;99.90;;;;;;4936013;29;20556;-70
2020/12/31 12:28:09;;;;;;;7.40;6.17;;;3.70;99.90;;;;;;4935111;29;20491;-69
2020/12/31 12:30:34;;;;;;;7.90;6.53;;;3.70;99.90;;;;;;4936008;29;20891;-69
2020/12/31 12:33:00;;;;;;;7.43;5.13;;;3.60;99.90;;;;;;4936052;29;20228;-69
2020/12/31 12:35:25;;;;;;;6.60;6.00;;;3.60;99.90;;;;;;4936137;29;20185;-69
2020/12/31 12:37:51;;;;;;;6.50;5.53;;;3.60;99.90;;;;;;4935324;29;20671;-70
2020/12/31 12:40:17;;;;;;;5.60;4.80;;;3.60;99.90;;;;;;4936040;29;20340;-69
2020/12/31 12:42:42;;;;;;;6.43;5.83;;;3.50;99.90;;;;;;4935820;29;20228;-69
2020/12/31 12:45:08;;;;;;;10.40;6.87;;;3.50;99.90;;;;;;4935669;29;20260;-70
2020/12/31 12:47:35;;;;;;;6.17;5.57;;;3.50;99.90;;;;;;4935485;29;20208;-70
2020/12/31 12:50:02;;;;;;;6.67;5.73;;;3.50;99.90;;;;;;4935171;28;20440;-69
2020/12/31 12:52:28;;;;;;;6.13;5.43;;;3.60;99.90;;;;;;4935331;29;20432;-69
2020/12/31 12:54:53;;;;;;;5.00;4.60;;;3.70;99.90;;;;;;4935388;29;20418;-70
2020/12/31 12:57:19;;;;;;;6.70;6.00;;;3.70;99.90;;;;;;4935492;29;20174;-69